Uster, Switzerland
Current Conditions -  °F | °C
As of 7:50 AM on Thursday 23 Oct 2014 (Local Time) from LSMD Reporting Station
Overcast Overcast  
Wind Chill: 39°   Ceiling: 6000
Heat Index: 43°   Visibility: 6mi
Dew Point: 39°   Wind: 6mph
Humidity: 87%   Direction: 330°NNW
Pressure: 30.27"   Gusts: NA
Location:  47.36°N, 8.71°E
Report Text: LSMD 230550Z 33005KT 9999 FEW025 OVC060 06/04 Q1025 RMK WHT
Loading
Personal Weather Stations






























Interactive Weather Map
Tropical Storm Tracking
New forecast layout! Learn more

10-Day Weather Forecast

Advertisements
Track Severe Weather on mobile